createdAt,value
2019-02-26T00:00:15.236Z,43.18
2019-02-26T00:01:18.543Z,43.18
2019-02-26T00:02:17.082Z,43.18
2019-02-26T00:03:14.537Z,43.08
2019-02-26T00:04:14.513Z,43.08
2019-02-26T00:05:17.357Z,43.08
2019-02-26T00:06:16.085Z,43.08
2019-02-26T00:07:16.596Z,43.08
2019-02-26T00:08:17.165Z,43.18
2019-02-26T00:09:18.030Z,43.18
2019-02-26T00:10:14.436Z,43.18
2019-02-26T00:11:14.426Z,43.08
2019-02-26T00:12:14.434Z,43.08
2019-02-26T00:13:14.439Z,43.08
2019-02-26T00:14:17.452Z,43.08
2019-02-26T00:15:14.381Z,43.08
2019-02-26T00:16:15.786Z,43.08
2019-02-26T00:17:15.327Z,43.08
2019-02-26T00:18:16.160Z,43.08
2019-02-26T00:19:14.566Z,43.08
2019-02-26T00:20:17.029Z,43.08
2019-02-26T00:21:14.319Z,43.08
2019-02-26T00:22:15.901Z,43.08
2019-02-26T00:23:14.299Z,43.08
2019-02-26T00:24:14.606Z,43.08
2019-02-26T00:25:15.435Z,43.08
2019-02-26T00:26:17.175Z,43.08
2019-02-26T00:27:14.261Z,43.08
2019-02-26T00:28:15.852Z,43.08
2019-02-26T00:29:14.231Z,43.08
2019-02-26T00:30:16.275Z,42.98
2019-02-26T00:31:14.247Z,42.98
2019-02-26T00:32:15.982Z,42.98
2019-02-26T00:33:14.197Z,42.98
2019-02-26T00:34:16.875Z,42.98
2019-02-26T00:35:15.829Z,43.08
2019-02-26T00:36:15.433Z,42.98
2019-02-26T00:37:14.226Z,42.98
2019-02-26T00:38:16.015Z,42.98
2019-02-26T00:39:14.130Z,42.98
2019-02-26T00:40:14.518Z,42.98
2019-02-26T00:41:14.112Z,42.98
2019-02-26T00:42:14.092Z,42.98
2019-02-26T00:43:14.316Z,42.98
2019-02-26T00:44:14.072Z,42.88
2019-02-26T00:45:14.065Z,42.88
2019-02-26T00:46:14.061Z,42.88
2019-02-26T00:47:14.047Z,42.88
2019-02-26T00:48:14.032Z,42.88
2019-02-26T00:49:14.040Z,42.88
2019-02-26T00:50:14.713Z,42.88
2019-02-26T00:51:15.969Z,42.88
2019-02-26T00:52:15.633Z,42.88
2019-02-26T00:53:17.092Z,42.78
2019-02-26T00:54:14.971Z,42.78
2019-02-26T00:55:13.957Z,42.78
2019-02-26T00:56:13.943Z,42.78
2019-02-26T00:57:14.046Z,42.88
2019-02-26T00:58:13.925Z,42.88
2019-02-26T00:59:13.942Z,42.88
2019-02-26T01:00:13.916Z,42.78
2019-02-26T01:01:15.262Z,42.78
2019-02-26T01:02:13.879Z,42.78
2019-02-26T01:03:15.348Z,42.78
2019-02-26T01:04:13.867Z,42.78
2019-02-26T01:05:15.731Z,42.78
2019-02-26T01:06:13.838Z,42.78
2019-02-26T01:07:13.843Z,42.78
2019-02-26T01:08:15.766Z,42.78
2019-02-26T01:09:13.811Z,42.78
2019-02-26T01:10:14.463Z,42.78
2019-02-26T01:11:13.790Z,42.78
2019-02-26T01:12:15.697Z,42.78
2019-02-26T01:13:13.821Z,42.78
2019-02-26T01:14:15.660Z,42.78
2019-02-26T01:15:14.107Z,42.78
2019-02-26T01:16:13.737Z,42.78
2019-02-26T01:17:14.817Z,42.78
2019-02-26T01:18:13.708Z,42.68
2019-02-26T01:19:15.351Z,42.68
2019-02-26T01:20:13.692Z,42.68
2019-02-26T01:21:13.683Z,42.68
2019-02-26T01:22:13.674Z,42.68
2019-02-26T01:23:13.695Z,42.68
2019-02-26T01:24:13.648Z,42.66
2019-02-26T01:25:15.933Z,42.68
2019-02-26T01:26:13.623Z,42.68
2019-02-26T01:27:13.614Z,42.68
2019-02-26T01:28:16.094Z,42.68
2019-02-26T01:29:18.518Z,42.68
2019-02-26T01:30:18.137Z,42.68
2019-02-26T01:31:13.575Z,42.68
2019-02-26T01:32:15.498Z,42.68
2019-02-26T01:33:13.549Z,42.68
2019-02-26T01:34:14.070Z,42.58
2019-02-26T01:35:13.547Z,42.68
2019-02-26T01:36:13.966Z,42.68
2019-02-26T01:37:13.515Z,42.55
2019-02-26T01:38:14.382Z,42.58
2019-02-26T01:39:14.337Z,42.58
2019-02-26T01:40:15.589Z,42.55
2019-02-26T01:41:13.868Z,42.58
2019-02-26T01:42:17.407Z,42.58
2019-02-26T01:43:13.439Z,42.58
2019-02-26T01:44:13.436Z,42.58
2019-02-26T01:45:13.418Z,42.58
2019-02-26T01:46:14.503Z,42.58
2019-02-26T01:47:13.416Z,42.58
2019-02-26T01:48:18.038Z,42.58
2019-02-26T01:49:14.380Z,42.55
2019-02-26T01:50:15.754Z,42.55
2019-02-26T01:51:13.354Z,42.55
2019-02-26T01:52:14.981Z,42.58
2019-02-26T01:53:14.470Z,42.55
2019-02-26T01:54:14.572Z,42.58
2019-02-26T01:55:13.317Z,42.58
2019-02-26T01:56:13.324Z,42.55
2019-02-26T01:57:13.287Z,42.55
2019-02-26T01:58:15.891Z,42.55
2019-02-26T01:59:13.270Z,42.47
2019-02-26T02:00:13.297Z,42.46
2019-02-26T02:01:14.219Z,42.47
2019-02-26T02:02:17.236Z,42.46
2019-02-26T02:03:13.228Z,42.46
2019-02-26T02:04:14.886Z,42.46
2019-02-26T02:05:13.214Z,42.46
2019-02-26T02:06:14.191Z,42.46
2019-02-26T02:07:13.203Z,42.46
2019-02-26T02:08:13.735Z,42.46
2019-02-26T02:09:14.118Z,42.46
2019-02-26T02:10:13.146Z,42.46
2019-02-26T02:11:13.140Z,42.46
2019-02-26T02:12:13.146Z,42.46
2019-02-26T02:13:13.114Z,42.46
2019-02-26T02:14:14.874Z,42.46
2019-02-26T02:15:17.379Z,42.46
2019-02-26T02:16:22.060Z,42.46
2019-02-26T02:17:13.603Z,42.35
2019-02-26T02:18:13.063Z,42.35
2019-02-26T02:19:18.007Z,42.35
2019-02-26T02:20:18.092Z,42.35
2019-02-26T02:21:14.032Z,42.38
2019-02-26T02:22:14.638Z,42.35
2019-02-26T02:23:13.009Z,42.35
2019-02-26T02:24:15.029Z,42.35
2019-02-26T02:25:12.986Z,42.35
2019-02-26T02:26:13.912Z,42.35
2019-02-26T02:27:17.498Z,42.25
2019-02-26T02:28:13.977Z,42.35
2019-02-26T02:29:16.538Z,42.35
2019-02-26T02:30:18.550Z,42.25
2019-02-26T02:31:13.924Z,42.35
2019-02-26T02:32:12.940Z,42.35
2019-02-26T02:33:17.275Z,42.35
2019-02-26T02:34:13.886Z,42.35
2019-02-26T02:35:15.438Z,42.35
2019-02-26T02:36:15.050Z,42.35
2019-02-26T02:37:12.882Z,42.35
2019-02-26T02:38:12.846Z,42.35
2019-02-26T02:39:15.434Z,42.35
2019-02-26T02:40:12.823Z,42.35
2019-02-26T02:41:12.815Z,42.35
2019-02-26T02:42:14.141Z,42.35
2019-02-26T02:43:15.436Z,42.35
2019-02-26T02:44:14.824Z,42.35
2019-02-26T02:45:16.120Z,42.35
2019-02-26T02:46:12.763Z,42.35
2019-02-26T02:47:12.752Z,42.35
2019-02-26T02:48:14.215Z,42.35
2019-02-26T02:49:15.235Z,42.35
2019-02-26T02:50:15.325Z,42.46
2019-02-26T02:51:14.033Z,42.35
2019-02-26T02:52:12.721Z,42.35
2019-02-26T02:53:12.683Z,42.35
2019-02-26T02:54:15.343Z,42.35
2019-02-26T02:55:13.850Z,42.35
2019-02-26T02:56:14.713Z,42.35
2019-02-26T02:57:12.638Z,42.35
2019-02-26T02:58:14.994Z,42.35
2019-02-26T02:59:14.173Z,42.35
2019-02-26T03:00:12.611Z,42.35
2019-02-26T03:01:14.037Z,42.35
2019-02-26T03:02:14.541Z,42.35
2019-02-26T03:03:12.575Z,42.35
2019-02-26T03:04:14.788Z,42.35
2019-02-26T03:05:12.565Z,42.35
2019-02-26T03:06:12.555Z,42.25
2019-02-26T03:07:12.534Z,42.25
2019-02-26T03:08:13.951Z,42.25
2019-02-26T03:09:14.518Z,42.25
2019-02-26T03:10:12.501Z,42.35
2019-02-26T03:11:12.525Z,42.25
2019-02-26T03:12:12.477Z,42.25
2019-02-26T03:13:14.331Z,42.25
2019-02-26T03:14:13.848Z,42.25
2019-02-26T03:15:12.456Z,42.25
2019-02-26T03:16:13.538Z,42.25
2019-02-26T03:17:14.745Z,42.25
2019-02-26T03:18:14.332Z,42.25
2019-02-26T03:19:14.516Z,42.25
2019-02-26T03:20:12.392Z,42.25
2019-02-26T03:21:12.400Z,42.25
2019-02-26T03:22:12.868Z,42.25
2019-02-26T03:23:15.862Z,42.25
2019-02-26T03:24:13.343Z,42.25
2019-02-26T03:25:14.325Z,42.25
2019-02-26T03:26:14.714Z,42.25
2019-02-26T03:27:12.310Z,42.25
2019-02-26T03:28:12.331Z,42.25
2019-02-26T03:29:12.286Z,42.25
2019-02-26T03:30:20.577Z,42.25
2019-02-26T03:31:13.269Z,42.15
2019-02-26T03:32:12.276Z,42.25
2019-02-26T03:33:12.286Z,42.25
2019-02-26T03:34:18.977Z,42.25
2019-02-26T03:35:15.931Z,42.15
2019-02-26T03:36:14.099Z,42.15
2019-02-26T03:37:12.203Z,42.25
2019-02-26T03:38:12.204Z,42.15
2019-02-26T03:39:12.202Z,42.15
2019-02-26T03:40:12.168Z,42.15
2019-02-26T03:41:12.162Z,42.15
2019-02-26T03:42:14.160Z,42.15
2019-02-26T03:43:13.245Z,42.15
2019-02-26T03:44:12.122Z,42.15
2019-02-26T03:45:12.130Z,42.15
2019-02-26T03:46:12.102Z,42.15
2019-02-26T03:47:12.097Z,42.15
2019-02-26T03:48:12.085Z,42.15
2019-02-26T03:49:12.074Z,42.15
2019-02-26T03:50:12.096Z,42.15
2019-02-26T03:51:12.049Z,42.15
2019-02-26T03:52:15.377Z,42.15
2019-02-26T03:53:12.028Z,42.05
2019-02-26T03:54:12.014Z,42.05
2019-02-26T03:55:14.119Z,42.05
2019-02-26T03:56:14.891Z,42.05
2019-02-26T03:57:14.212Z,42.05
2019-02-26T03:58:11.990Z,42.05
2019-02-26T03:59:11.965Z,42.05
2019-02-26T04:00:14.120Z,42.05
2019-02-26T04:01:13.631Z,42.05
2019-02-26T04:02:14.838Z,42.05
2019-02-26T04:03:14.626Z,42.05
2019-02-26T04:04:11.912Z,42.05
2019-02-26T04:05:11.895Z,42.07
2019-02-26T04:06:12.180Z,42.05
2019-02-26T04:07:11.879Z,42.05
2019-02-26T04:08:11.868Z,42.05
2019-02-26T04:09:15.948Z,42.05
2019-02-26T04:10:11.841Z,42.05
2019-02-26T04:11:13.684Z,42.05
2019-02-26T04:12:13.586Z,42.05
2019-02-26T04:13:11.809Z,42.05
2019-02-26T04:14:12.600Z,41.95
2019-02-26T04:15:11.914Z,41.95
2019-02-26T04:16:11.798Z,41.95
2019-02-26T04:17:11.763Z,41.95
2019-02-26T04:18:11.754Z,41.95
2019-02-26T04:19:11.746Z,41.95
2019-02-26T04:20:11.737Z,41.95
2019-02-26T04:21:12.904Z,41.95
2019-02-26T04:22:13.126Z,41.95
2019-02-26T04:23:14.207Z,41.95
2019-02-26T04:24:11.720Z,41.95
2019-02-26T04:25:11.677Z,41.95
2019-02-26T04:26:15.966Z,41.95
2019-02-26T04:27:12.660Z,41.97
2019-02-26T04:28:11.647Z,41.95
2019-02-26T04:29:11.634Z,41.95
2019-02-26T04:30:13.488Z,41.95
2019-02-26T04:31:11.636Z,41.95
2019-02-26T04:32:12.157Z,41.95
2019-02-26T04:33:14.017Z,41.95
2019-02-26T04:34:11.604Z,41.95
2019-02-26T04:35:11.592Z,41.95
2019-02-26T04:36:12.432Z,41.95
2019-02-26T04:37:12.905Z,41.95
2019-02-26T04:38:11.546Z,41.95
2019-02-26T04:39:13.751Z,41.85
2019-02-26T04:40:13.975Z,41.85
2019-02-26T04:41:13.372Z,41.85
2019-02-26T04:42:13.998Z,41.85
2019-02-26T04:43:12.868Z,41.85
2019-02-26T04:44:11.479Z,41.85
2019-02-26T04:45:11.463Z,41.87
2019-02-26T04:46:13.654Z,41.85
2019-02-26T04:47:11.515Z,41.85
2019-02-26T04:48:14.655Z,41.85
2019-02-26T04:49:12.421Z,41.87
2019-02-26T04:50:11.413Z,41.85
2019-02-26T04:51:11.393Z,41.77
2019-02-26T04:52:14.319Z,41.75
2019-02-26T04:53:12.377Z,41.77
2019-02-26T04:54:17.312Z,41.77
2019-02-26T04:55:12.370Z,41.77
2019-02-26T04:56:14.871Z,41.77
2019-02-26T04:57:11.356Z,41.77
2019-02-26T04:58:14.808Z,41.77
2019-02-26T04:59:14.472Z,41.67
2019-02-26T05:00:11.297Z,41.67
2019-02-26T05:01:12.995Z,41.67
2019-02-26T05:02:11.305Z,41.77
2019-02-26T05:03:14.135Z,41.77
2019-02-26T05:04:11.254Z,41.77
2019-02-26T05:05:11.245Z,41.67
2019-02-26T05:06:11.238Z,41.77
2019-02-26T05:07:13.444Z,41.77
2019-02-26T05:08:12.835Z,41.77
2019-02-26T05:09:11.217Z,41.67
2019-02-26T05:10:11.195Z,41.67
2019-02-26T05:11:14.736Z,41.67
2019-02-26T05:12:11.170Z,41.67
2019-02-26T05:13:11.160Z,41.67
2019-02-26T05:14:11.739Z,41.67
2019-02-26T05:15:13.905Z,41.57
2019-02-26T05:16:12.137Z,41.57
2019-02-26T05:17:11.114Z,41.57
2019-02-26T05:18:11.098Z,41.57
2019-02-26T05:19:13.571Z,41.57
2019-02-26T05:20:13.463Z,41.57
2019-02-26T05:21:12.961Z,41.57
2019-02-26T05:22:11.061Z,41.57
2019-02-26T05:23:11.052Z,41.57
2019-02-26T05:24:13.112Z,41.57
2019-02-26T05:25:14.758Z,41.57
2019-02-26T05:26:15.120Z,41.57
2019-02-26T05:27:13.145Z,41.57
2019-02-26T05:28:14.087Z,41.57
2019-02-26T05:29:10.984Z,41.57
2019-02-26T05:30:15.560Z,41.57
2019-02-26T05:31:14.461Z,41.57
2019-02-26T05:32:10.954Z,41.57
2019-02-26T05:33:10.948Z,41.57
2019-02-26T05:34:12.425Z,41.57
2019-02-26T05:35:11.703Z,41.57
2019-02-26T05:36:12.239Z,41.57
2019-02-26T05:37:11.984Z,41.57
2019-02-26T05:38:10.884Z,41.57
2019-02-26T05:39:10.872Z,41.47
2019-02-26T05:40:13.367Z,41.47
2019-02-26T05:41:10.852Z,41.47
2019-02-26T05:42:10.882Z,41.47
2019-02-26T05:43:10.856Z,41.47
2019-02-26T05:44:10.910Z,41.47
2019-02-26T05:45:10.811Z,41.47
2019-02-26T05:46:10.796Z,41.47
2019-02-26T05:47:10.789Z,41.47
2019-02-26T05:48:12.476Z,41.47
2019-02-26T05:49:14.097Z,41.47
2019-02-26T05:50:16.329Z,41.47
2019-02-26T05:51:11.490Z,41.47
2019-02-26T05:52:10.733Z,41.47
2019-02-26T05:53:13.357Z,41.47
2019-02-26T05:54:12.238Z,41.47
2019-02-26T05:55:13.928Z,41.47
2019-02-26T05:56:11.627Z,41.47
2019-02-26T05:57:25.637Z,41.47
2019-02-26T05:58:15.144Z,41.47
2019-02-26T05:59:13.472Z,41.47
2019-02-26T06:00:13.318Z,41.47
2019-02-26T06:01:10.642Z,41.47
2019-02-26T06:02:13.268Z,41.47
2019-02-26T06:03:13.007Z,41.47
2019-02-26T06:04:12.348Z,41.35
2019-02-26T06:05:11.892Z,41.47
2019-02-26T06:06:10.593Z,41.47
2019-02-26T06:07:10.569Z,41.35
2019-02-26T06:08:10.560Z,41.37
2019-02-26T06:09:10.556Z,41.37
2019-02-26T06:10:10.581Z,41.35
2019-02-26T06:11:10.531Z,41.35
2019-02-26T06:12:10.514Z,41.35
2019-02-26T06:13:12.903Z,41.35
2019-02-26T06:14:12.618Z,41.35
2019-02-26T06:15:10.487Z,41.25
2019-02-26T06:16:10.688Z,41.25
2019-02-26T06:17:12.544Z,41.25
2019-02-26T06:18:10.449Z,41.27
2019-02-26T06:19:11.023Z,41.25
2019-02-26T06:20:11.014Z,41.25
2019-02-26T06:21:10.424Z,41.25
2019-02-26T06:22:14.500Z,41.25
2019-02-26T06:23:11.396Z,41.25
2019-02-26T06:24:10.404Z,41.15
2019-02-26T06:25:17.700Z,41.15
2019-02-26T06:26:14.879Z,41.15
2019-02-26T06:27:15.447Z,41.15
2019-02-26T06:28:12.687Z,41.15
2019-02-26T06:29:10.346Z,41.15
2019-02-26T06:30:12.268Z,41.15
2019-02-26T06:31:12.209Z,41.15
2019-02-26T06:32:12.033Z,41.15
2019-02-26T06:33:12.168Z,41.05
2019-02-26T06:34:11.874Z,41.05
2019-02-26T06:35:11.084Z,41.05
2019-02-26T06:36:10.252Z,41.05
2019-02-26T06:37:11.716Z,41.05
2019-02-26T06:38:11.645Z,41.05
2019-02-26T06:39:10.267Z,41.05
2019-02-26T06:40:10.209Z,41.05
2019-02-26T06:41:10.194Z,41.05
2019-02-26T06:42:12.052Z,41.05
2019-02-26T06:43:10.180Z,40.95
2019-02-26T06:44:10.168Z,40.95
2019-02-26T06:45:11.003Z,41.05
2019-02-26T06:46:12.317Z,41.05
2019-02-26T06:47:10.137Z,40.95
2019-02-26T06:48:12.632Z,40.95
2019-02-26T06:49:10.114Z,40.95
2019-02-26T06:50:11.078Z,40.95
2019-02-26T06:51:10.089Z,40.95
2019-02-26T06:52:10.833Z,40.95
2019-02-26T06:53:11.083Z,40.95
2019-02-26T06:54:10.083Z,40.95
2019-02-26T06:55:10.044Z,40.95
2019-02-26T06:56:10.034Z,40.95
2019-02-26T06:57:10.019Z,40.95
2019-02-26T06:58:10.018Z,40.95
2019-02-26T06:59:12.108Z,40.95
2019-02-26T07:00:09.993Z,40.95
2019-02-26T07:01:11.936Z,40.95
2019-02-26T07:02:10.939Z,40.95
2019-02-26T07:03:09.956Z,40.95
2019-02-26T07:04:12.970Z,40.95
2019-02-26T07:05:09.965Z,40.95
2019-02-26T07:06:09.926Z,40.95
2019-02-26T07:07:14.038Z,40.95
2019-02-26T07:08:09.898Z,40.95
2019-02-26T07:09:10.950Z,40.95
2019-02-26T07:10:13.768Z,40.95
2019-02-26T07:11:11.088Z,40.95
2019-02-26T07:12:09.857Z,40.95
2019-02-26T07:13:11.829Z,40.95
2019-02-26T07:14:10.365Z,40.95
2019-02-26T07:15:12.170Z,40.95
2019-02-26T07:16:09.811Z,40.95
2019-02-26T07:17:09.834Z,40.95
2019-02-26T07:18:12.820Z,40.95
2019-02-26T07:19:12.252Z,40.95
2019-02-26T07:20:09.774Z,40.95
2019-02-26T07:21:09.763Z,40.95
2019-02-26T07:22:11.614Z,40.95
2019-02-26T07:23:10.572Z,40.95
2019-02-26T07:24:09.724Z,40.95
2019-02-26T07:25:12.614Z,40.95
2019-02-26T07:26:11.710Z,40.95
2019-02-26T07:27:11.503Z,40.95
2019-02-26T07:28:09.709Z,40.95
2019-02-26T07:29:12.229Z,40.95
2019-02-26T07:30:09.665Z,40.95
2019-02-26T07:31:12.017Z,40.95
2019-02-26T07:32:09.660Z,40.95
2019-02-26T07:33:10.401Z,40.95
2019-02-26T07:34:09.618Z,40.95
2019-02-26T07:35:13.105Z,40.95
2019-02-26T07:36:09.597Z,40.95
2019-02-26T07:37:11.227Z,40.95
2019-02-26T07:38:09.573Z,40.95
2019-02-26T07:39:10.481Z,40.95
2019-02-26T07:40:11.073Z,40.95
2019-02-26T07:41:09.544Z,40.95
2019-02-26T07:42:11.074Z,40.95
2019-02-26T07:43:12.074Z,40.95
2019-02-26T07:44:13.710Z,40.95
2019-02-26T07:45:15.083Z,40.95
2019-02-26T07:46:12.654Z,40.95
2019-02-26T07:47:11.259Z,40.95
2019-02-26T07:48:09.482Z,40.95
2019-02-26T07:49:09.452Z,40.95
2019-02-26T07:50:11.607Z,40.95
2019-02-26T07:51:09.430Z,40.95
2019-02-26T07:52:09.640Z,40.95
2019-02-26T07:53:09.417Z,40.95
2019-02-26T07:54:09.399Z,40.95
2019-02-26T07:55:11.939Z,40.95
2019-02-26T07:56:09.383Z,40.95
2019-02-26T07:57:09.362Z,40.95
2019-02-26T07:58:11.563Z,40.95
2019-02-26T07:59:10.009Z,40.95
2019-02-26T08:00:09.334Z,40.95
2019-02-26T08:01:09.320Z,40.95
2019-02-26T08:02:11.235Z,40.95
2019-02-26T08:03:09.325Z,40.95
2019-02-26T08:04:11.081Z,40.95
2019-02-26T08:05:09.281Z,40.95
2019-02-26T08:06:11.523Z,40.95
2019-02-26T08:07:09.253Z,40.95
2019-02-26T08:08:09.826Z,40.95
2019-02-26T08:09:12.156Z,40.95
2019-02-26T08:10:10.537Z,40.95
2019-02-26T08:11:09.225Z,40.95
2019-02-26T08:12:11.258Z,40.95
2019-02-26T08:13:09.189Z,40.95
2019-02-26T08:14:09.178Z,40.95
2019-02-26T08:15:10.494Z,41.05
2019-02-26T08:16:09.161Z,40.95
2019-02-26T08:17:09.152Z,41.05
2019-02-26T08:18:09.139Z,41.05
2019-02-26T08:19:09.122Z,41.05
2019-02-26T08:20:10.548Z,41.05
2019-02-26T08:21:09.143Z,41.05
2019-02-26T08:22:09.095Z,41.05
2019-02-26T08:23:09.083Z,41.05
2019-02-26T08:24:10.610Z,40.95
2019-02-26T08:25:09.062Z,41.05
2019-02-26T08:26:09.055Z,41.05
2019-02-26T08:27:11.054Z,41.05
2019-02-26T08:28:09.035Z,41.05
2019-02-26T08:29:09.832Z,41.05
2019-02-26T08:30:09.005Z,41.05
2019-02-26T08:31:11.283Z,41.15
2019-02-26T08:32:08.982Z,41.15
2019-02-26T08:33:09.006Z,41.15
2019-02-26T08:34:12.648Z,41.15
2019-02-26T08:35:08.958Z,41.15
2019-02-26T08:36:08.941Z,41.15
2019-02-26T08:37:08.933Z,41.25
2019-02-26T08:38:08.918Z,41.35
2019-02-26T08:39:08.934Z,41.35
2019-02-26T08:40:09.580Z,41.45
2019-02-26T08:41:08.891Z,41.45
2019-02-26T08:42:08.880Z,41.45
2019-02-26T08:43:08.893Z,41.55
2019-02-26T08:44:08.873Z,41.55
2019-02-26T08:45:08.869Z,41.55
2019-02-26T08:46:10.026Z,41.65
2019-02-26T08:47:11.280Z,41.65
2019-02-26T08:48:08.808Z,41.65
2019-02-26T08:49:11.086Z,41.65
2019-02-26T08:50:10.009Z,41.75
2019-02-26T08:51:13.626Z,41.75
2019-02-26T08:52:09.770Z,41.85
2019-02-26T08:53:08.756Z,41.85
2019-02-26T08:54:08.769Z,41.95
2019-02-26T08:55:10.392Z,41.95
2019-02-26T08:56:08.723Z,42.05
2019-02-26T08:57:08.740Z,42.05
2019-02-26T08:58:10.698Z,42.05
2019-02-26T08:59:08.691Z,42.05
2019-02-26T09:00:08.686Z,42.15
2019-02-26T09:01:08.677Z,42.15
2019-02-26T09:02:08.657Z,42.15
2019-02-26T09:03:10.613Z,42.25
2019-02-26T09:04:08.640Z,42.25
2019-02-26T09:05:09.868Z,42.25
2019-02-26T09:06:13.335Z,42.25
2019-02-26T09:07:09.625Z,42.25
2019-02-26T09:08:10.875Z,42.35
2019-02-26T09:09:08.583Z,42.35
2019-02-26T09:10:10.678Z,42.35
2019-02-26T09:11:10.827Z,42.46
2019-02-26T09:12:08.574Z,42.46
2019-02-26T09:13:09.385Z,42.46
2019-02-26T09:14:09.777Z,42.46
2019-02-26T09:15:08.526Z,42.46
2019-02-26T09:16:08.514Z,42.55
2019-02-26T09:17:08.530Z,42.55
2019-02-26T09:18:08.506Z,42.66
2019-02-26T09:19:08.479Z,42.66
2019-02-26T09:20:09.753Z,42.76
2019-02-26T09:21:10.280Z,42.66
2019-02-26T09:22:11.799Z,42.76
2019-02-26T09:23:09.475Z,42.76
2019-02-26T09:24:08.427Z,42.86
2019-02-26T09:25:08.410Z,42.86
2019-02-26T09:26:08.404Z,42.96
2019-02-26T09:27:08.388Z,42.96
2019-02-26T09:28:08.399Z,42.96
2019-02-26T09:29:10.289Z,42.96
2019-02-26T09:30:10.492Z,42.96
2019-02-26T09:31:09.649Z,43.06
2019-02-26T09:32:09.291Z,43.06
2019-02-26T09:33:09.215Z,43.06
2019-02-26T09:34:08.318Z,43.06
2019-02-26T09:35:08.302Z,43.06
2019-02-26T09:36:10.522Z,43.16
2019-02-26T09:37:08.280Z,43.16
2019-02-26T09:38:08.272Z,43.16
2019-02-26T09:39:10.215Z,43.16
2019-02-26T09:40:08.261Z,43.16
2019-02-26T09:41:10.033Z,43.26
2019-02-26T09:42:09.242Z,43.26
2019-02-26T09:43:08.216Z,43.26
2019-02-26T09:44:09.658Z,43.26
2019-02-26T09:45:08.217Z,43.36
2019-02-26T09:46:10.136Z,43.36
2019-02-26T09:47:09.204Z,43.36
2019-02-26T09:48:09.926Z,43.36
2019-02-26T09:49:11.845Z,43.36
2019-02-26T09:50:10.034Z,43.36
2019-02-26T09:51:09.345Z,43.46
2019-02-26T09:52:08.121Z,43.46
2019-02-26T09:53:08.132Z,43.46
2019-02-26T09:54:08.095Z,43.46
2019-02-26T09:55:08.085Z,43.46
2019-02-26T09:56:08.074Z,43.46
2019-02-26T09:57:08.072Z,43.96
2019-02-26T09:58:08.080Z,43.87
2019-02-26T09:59:09.825Z,43.87
2019-02-26T10:00:08.036Z,43.96
2019-02-26T10:01:09.113Z,44.17
2019-02-26T10:02:08.015Z,44.17
2019-02-26T10:03:10.223Z,44.67
2019-02-26T10:04:08.017Z,45.27
2019-02-26T10:05:08.634Z,45.47
2019-02-26T10:06:07.964Z,45.57
2019-02-26T10:07:09.852Z,45.37
2019-02-26T10:08:07.947Z,45.47
2019-02-26T10:09:10.673Z,45.47
2019-02-26T10:10:09.210Z,45.67
2019-02-26T10:11:07.919Z,45.67
2019-02-26T10:12:09.867Z,45.67
2019-02-26T10:13:07.913Z,45.87
2019-02-26T10:14:10.068Z,45.98
2019-02-26T10:15:07.869Z,46.08
2019-02-26T10:16:08.946Z,45.98
2019-02-26T10:17:09.195Z,45.98
2019-02-26T10:18:09.357Z,45.65
2019-02-26T10:19:10.046Z,45.57
2019-02-26T10:20:09.427Z,45.47
2019-02-26T10:21:09.147Z,45.37
2019-02-26T10:22:12.658Z,45.07
2019-02-26T10:23:08.789Z,44.97
2019-02-26T10:24:07.780Z,44.87
2019-02-26T10:25:07.789Z,44.67
2019-02-26T10:26:10.385Z,44.57
2019-02-26T10:27:10.901Z,44.57
2019-02-26T10:28:11.033Z,44.47
2019-02-26T10:29:08.115Z,44.47
2019-02-26T10:30:10.042Z,44.37
2019-02-26T10:31:09.720Z,44.47
2019-02-26T10:32:11.211Z,44.47
2019-02-26T10:33:07.679Z,44.37
2019-02-26T10:34:10.437Z,44.37
2019-02-26T10:35:09.687Z,44.47
2019-02-26T10:36:11.180Z,44.37
2019-02-26T10:37:07.647Z,44.37
2019-02-26T10:38:10.697Z,44.37
2019-02-26T10:39:08.581Z,44.27
2019-02-26T10:40:09.593Z,44.27
2019-02-26T10:41:07.666Z,44.27
2019-02-26T10:42:07.578Z,44.27
2019-02-26T10:43:07.568Z,44.27
2019-02-26T10:44:07.555Z,44.17
2019-02-26T10:45:07.552Z,44.17
2019-02-26T10:46:07.540Z,44.17
2019-02-26T10:47:08.698Z,44.17
2019-02-26T10:48:07.519Z,44.07
2019-02-26T10:49:07.505Z,43.96
2019-02-26T10:50:07.501Z,44.07
2019-02-26T10:51:07.484Z,43.96
2019-02-26T10:52:07.498Z,43.96
2019-02-26T10:53:10.602Z,43.96
2019-02-26T10:54:12.127Z,43.76
2019-02-26T10:55:07.445Z,43.76
2019-02-26T10:56:07.451Z,43.66
2019-02-26T10:57:11.161Z,43.66
2019-02-26T10:58:12.163Z,43.56
2019-02-26T10:59:09.386Z,43.56
2019-02-26T11:00:10.368Z,43.56
2019-02-26T11:01:07.457Z,43.56
2019-02-26T11:02:07.369Z,43.56
2019-02-26T11:03:09.033Z,43.56
2019-02-26T11:04:07.358Z,43.56
2019-02-26T11:05:08.636Z,43.56
2019-02-26T11:06:09.867Z,43.56
2019-02-26T11:07:09.273Z,43.56
2019-02-26T11:08:09.394Z,43.56
2019-02-26T11:09:07.311Z,43.46
2019-02-26T11:10:07.284Z,43.46
2019-02-26T11:11:08.209Z,43.46
2019-02-26T11:12:08.616Z,43.46
2019-02-26T11:13:07.269Z,43.36
2019-02-26T11:14:08.322Z,43.36
2019-02-26T11:15:09.140Z,43.36
2019-02-26T11:16:07.210Z,43.36
2019-02-26T11:17:07.200Z,43.36
2019-02-26T11:18:08.210Z,43.36
2019-02-26T11:19:09.336Z,43.36
2019-02-26T11:20:07.796Z,43.26
2019-02-26T11:21:07.166Z,43.26
2019-02-26T11:22:07.173Z,43.26
2019-02-26T11:23:08.938Z,43.26
2019-02-26T11:24:08.735Z,43.16
2019-02-26T11:25:07.112Z,43.16
2019-02-26T11:26:09.627Z,43.16
2019-02-26T11:27:08.096Z,43.16
2019-02-26T11:28:07.541Z,43.16
2019-02-26T11:29:07.078Z,43.06
2019-02-26T11:30:07.098Z,43.06
2019-02-26T11:31:08.991Z,43.06
2019-02-26T11:32:07.834Z,43.06
2019-02-26T11:33:10.152Z,43.06
2019-02-26T11:34:09.911Z,43.06
2019-02-26T11:35:07.010Z,43.06
2019-02-26T11:36:08.196Z,43.06
2019-02-26T11:37:08.835Z,43.06
2019-02-26T11:38:09.133Z,43.06
2019-02-26T11:39:08.795Z,43.06
2019-02-26T11:40:06.953Z,42.96
2019-02-26T11:41:06.982Z,42.96
2019-02-26T11:42:06.935Z,42.96
2019-02-26T11:43:11.487Z,42.96
2019-02-26T11:44:12.482Z,42.96
2019-02-26T11:45:09.771Z,42.96
2019-02-26T11:46:08.738Z,42.86
2019-02-26T11:47:08.520Z,42.86
2019-02-26T11:48:08.821Z,42.86
2019-02-26T11:49:06.855Z,42.96
2019-02-26T11:50:07.495Z,43.26
2019-02-26T11:51:06.830Z,43.36
2019-02-26T11:52:06.819Z,43.46
2019-02-26T11:53:09.359Z,43.46
2019-02-26T11:54:08.271Z,43.56
2019-02-26T11:55:09.428Z,43.56
2019-02-26T11:56:06.781Z,43.56
2019-02-26T11:57:09.734Z,43.66
2019-02-26T11:58:10.044Z,43.56
2019-02-26T11:59:09.120Z,43.56
2019-02-26T12:00:09.103Z,43.36
2019-02-26T12:01:06.729Z,43.26
2019-02-26T12:02:06.762Z,43.16
2019-02-26T12:03:06.726Z,43.16
2019-02-26T12:04:08.544Z,43.16
2019-02-26T12:05:08.163Z,43.06
2019-02-26T12:06:07.090Z,43.06
2019-02-26T12:07:09.649Z,43.06
2019-02-26T12:08:06.651Z,43.06
2019-02-26T12:09:08.777Z,42.96
2019-02-26T12:11:12.542Z,42.96
2019-02-26T12:12:09.239Z,42.96
2019-02-26T12:13:06.593Z,42.96
2019-02-26T12:14:08.263Z,42.96
2019-02-26T12:15:07.346Z,42.96
2019-02-26T12:16:06.558Z,42.86
2019-02-26T12:17:06.560Z,42.86
2019-02-26T12:18:06.562Z,42.76
2019-02-26T12:19:08.746Z,42.76
2019-02-26T12:20:06.518Z,42.76
2019-02-26T12:21:07.957Z,42.76
2019-02-26T12:22:06.495Z,42.76
2019-02-26T12:23:07.931Z,42.76
2019-02-26T12:24:08.897Z,42.76
2019-02-26T12:25:10.561Z,42.66
2019-02-26T12:26:06.452Z,42.66
2019-02-26T12:27:07.391Z,42.66
2019-02-26T12:28:08.053Z,42.66
2019-02-26T12:29:06.414Z,42.66
2019-02-26T12:30:07.223Z,42.66
2019-02-26T12:31:08.133Z,42.66
2019-02-26T12:32:06.387Z,42.66
2019-02-26T12:33:09.177Z,42.66
2019-02-26T12:34:08.372Z,42.66
2019-02-26T12:35:08.609Z,42.66
2019-02-26T12:36:07.552Z,42.66
2019-02-26T12:37:11.145Z,43.16
2019-02-26T12:38:17.933Z,42.86
2019-02-26T12:39:07.312Z,42.76
2019-02-26T12:40:06.299Z,42.86
2019-02-26T12:41:09.030Z,42.96
2019-02-26T12:42:10.433Z,42.86
2019-02-26T12:43:08.429Z,42.96
2019-02-26T12:44:10.965Z,42.96
2019-02-26T12:45:09.897Z,42.66
2019-02-26T12:46:08.441Z,42.66
2019-02-26T12:47:06.246Z,42.66
2019-02-26T12:48:07.141Z,42.66
2019-02-26T12:49:08.581Z,42.66
2019-02-26T12:50:08.696Z,42.66
2019-02-26T12:51:07.709Z,42.66
2019-02-26T12:52:06.188Z,42.66
2019-02-26T12:53:08.749Z,42.66